createdAt,value
2016-05-19T00:00:56.323Z,86.09
2016-05-19T00:01:56.356Z,86.18
2016-05-19T00:02:56.390Z,86.09
2016-05-19T00:03:56.424Z,86.18
2016-05-19T00:04:56.473Z,86.38
2016-05-19T00:05:56.508Z,86.28
2016-05-19T00:06:56.541Z,86.09
2016-05-19T00:07:56.575Z,86.66
2016-05-19T00:08:56.609Z,86.38
2016-05-19T00:09:56.659Z,85.99
2016-05-19T00:10:56.693Z,86.18
2016-05-19T00:11:56.727Z,86.57
2016-05-19T00:12:56.761Z,86.28
2016-05-19T00:13:56.795Z,86.47
2016-05-19T00:14:56.845Z,86.57
2016-05-19T00:15:56.878Z,86.66
2016-05-19T00:16:56.913Z,86.76
2016-05-19T00:17:56.947Z,86.47
2016-05-19T00:18:56.996Z,86.18
2016-05-19T00:19:57.249Z,86.76
2016-05-19T00:20:57.063Z,86.18
2016-05-19T00:21:57.097Z,86.18
2016-05-19T00:22:57.335Z,85.99
2016-05-19T00:23:57.181Z,86.18
2016-05-19T00:24:57.216Z,86.95
2016-05-19T00:25:57.249Z,86.47
2016-05-19T00:26:57.282Z,86.47
2016-05-19T00:27:57.317Z,86.57
2016-05-19T00:28:57.366Z,86.57
2016-05-19T00:29:57.401Z,86.28
2016-05-19T00:30:57.434Z,86.76
2016-05-19T00:31:57.468Z,86.66
2016-05-19T00:32:57.517Z,86.66
2016-05-19T00:33:57.551Z,86.57
2016-05-19T00:34:57.586Z,86.85
2016-05-19T00:35:57.620Z,86.47
2016-05-19T00:36:57.654Z,86.47
2016-05-19T00:37:57.703Z,86.47
2016-05-19T00:38:57.737Z,86.66
2016-05-19T00:39:57.771Z,86.66
2016-05-19T00:40:57.805Z,86.66
2016-05-19T00:41:57.855Z,87.05
2016-05-19T00:42:57.889Z,87.05
2016-05-19T00:43:57.922Z,86.47
2016-05-19T00:44:57.956Z,86.95
2016-05-19T00:45:57.991Z,86.85
2016-05-19T00:46:58.039Z,87.05
2016-05-19T00:47:58.074Z,86.57
2016-05-19T00:48:58.108Z,86.95
2016-05-19T00:49:58.141Z,86.76
2016-05-19T00:50:58.191Z,86.76
2016-05-19T00:51:58.225Z,86.66
2016-05-19T00:52:58.524Z,86.76
2016-05-19T00:53:58.293Z,86.66
2016-05-19T00:54:58.327Z,87.24
2016-05-19T00:55:58.377Z,86.76
2016-05-19T00:56:58.411Z,87.43
2016-05-19T00:57:58.444Z,86.66
2016-05-19T00:58:58.478Z,86.66
2016-05-19T00:59:58.513Z,86.66
2016-05-19T01:00:58.562Z,87.43
2016-05-19T01:01:58.595Z,87.53
2016-05-19T01:02:58.629Z,87.24
2016-05-19T01:03:58.664Z,86.85
2016-05-19T01:04:58.713Z,87.43
2016-05-19T01:05:58.748Z,87.43
2016-05-19T01:06:58.781Z,87.24
2016-05-19T01:07:58.815Z,87.15
2016-05-19T01:08:58.849Z,87.15
2016-05-19T01:09:58.883Z,87.15
2016-05-19T01:10:58.933Z,86.95
2016-05-19T01:11:58.966Z,87.05
2016-05-19T01:12:59.000Z,87.15
2016-05-19T01:13:59.034Z,87.34
2016-05-19T01:14:59.084Z,86.95
2016-05-19T01:15:59.117Z,87.15
2016-05-19T01:16:59.152Z,87.24
2016-05-19T01:17:59.186Z,87.15
2016-05-19T01:18:59.236Z,87.15
2016-05-19T01:19:59.269Z,87.24
2016-05-19T01:20:59.302Z,86.95
2016-05-19T01:21:59.338Z,87.15
2016-05-19T01:22:59.372Z,87.05
2016-05-19T01:23:59.421Z,87.34
2016-05-19T01:24:59.454Z,87.53
2016-05-19T01:25:59.488Z,87.62
2016-05-19T01:26:59.522Z,87.43
2016-05-19T01:27:59.557Z,87.43
2016-05-19T01:28:59.606Z,86.95
2016-05-19T01:29:59.640Z,87.15
2016-05-19T01:30:59.690Z,87.34
2016-05-19T01:31:59.707Z,87.43
2016-05-19T01:32:59.757Z,87.53
2016-05-19T01:33:59.791Z,87.34
2016-05-19T01:34:59.825Z,87.15
2016-05-19T01:35:59.859Z,87.24
2016-05-19T01:36:59.893Z,87.24
2016-05-19T01:37:59.942Z,87.15
2016-05-19T01:38:59.977Z,87.24
2016-05-19T01:40:00.010Z,87.24
2016-05-19T01:41:00.044Z,87.15
2016-05-19T01:42:00.078Z,87.15
2016-05-19T01:43:00.112Z,87.82
2016-05-19T01:44:00.162Z,87.53
2016-05-19T01:45:00.196Z,87.82
2016-05-19T01:46:00.230Z,87.72
2016-05-19T01:47:00.264Z,87.49
2016-05-19T01:48:00.313Z,87.58
2016-05-19T01:49:00.363Z,87.87
2016-05-19T01:50:00.381Z,87.92
2016-05-19T01:51:00.416Z,87.53
2016-05-19T01:52:00.449Z,87.68
2016-05-19T01:53:00.499Z,87.53
2016-05-19T01:54:00.533Z,87.1
2016-05-19T01:55:00.566Z,87.34
2016-05-19T01:56:00.600Z,87.92
2016-05-19T01:57:00.635Z,87.43
2016-05-19T01:58:00.684Z,87.15
2016-05-19T01:59:00.718Z,87.62
2016-05-19T02:00:00.752Z,87.62
2016-05-19T02:01:00.785Z,87.49
2016-05-19T02:02:00.820Z,87.92
2016-05-19T02:03:00.868Z,87.49
2016-05-19T02:04:00.903Z,87.53
2016-05-19T02:05:00.938Z,87.49
2016-05-19T02:06:00.971Z,87.39
2016-05-19T02:07:01.020Z,87.43
2016-05-19T02:08:01.054Z,86.91
2016-05-19T02:09:01.089Z,86.95
2016-05-19T02:10:01.123Z,87.39
2016-05-19T02:11:01.157Z,87.58
2016-05-19T02:12:01.206Z,87.58
2016-05-19T02:13:01.240Z,87.82
2016-05-19T02:14:01.274Z,87.39
2016-05-19T02:15:01.308Z,87.77
2016-05-19T02:16:01.342Z,87.49
2016-05-19T02:17:01.375Z,87.39
2016-05-19T02:18:01.425Z,87.68
2016-05-19T02:19:01.459Z,87.58
2016-05-19T02:20:01.493Z,87.58
2016-05-19T02:21:01.527Z,87.77
2016-05-19T02:22:01.577Z,87.77
2016-05-19T02:23:01.626Z,87.68
2016-05-19T02:24:01.644Z,87.19
2016-05-19T02:25:01.686Z,87.77
2016-05-19T02:26:01.736Z,87.58
2016-05-19T02:27:01.754Z,87.58
2016-05-19T02:28:01.788Z,87.49
2016-05-19T02:29:01.822Z,87.49
2016-05-19T02:30:01.872Z,87.53
2016-05-19T02:31:01.905Z,87.29
2016-05-19T02:32:01.940Z,87.87
2016-05-19T02:33:01.973Z,87.87
2016-05-19T02:34:02.023Z,87.39
2016-05-19T02:35:02.057Z,87.87
2016-05-19T02:36:02.091Z,88.16
2016-05-19T02:37:02.124Z,87.96
2016-05-19T02:38:02.159Z,88.16
2016-05-19T02:39:02.209Z,87.77
2016-05-19T02:40:02.257Z,87.77
2016-05-19T02:41:02.304Z,87.77
2016-05-19T02:42:02.381Z,87.96
2016-05-19T02:43:02.474Z,87.87
2016-05-19T02:44:02.552Z,87.87
2016-05-19T02:45:02.630Z,87.87
2016-05-19T02:46:02.688Z,87.77
2016-05-19T02:47:02.738Z,87.96
2016-05-19T02:48:02.802Z,87.87
2016-05-19T02:49:02.852Z,88.06
2016-05-19T02:50:02.902Z,87.87
2016-05-19T02:51:02.944Z,87.96
2016-05-19T02:52:02.984Z,87.87
2016-05-19T02:53:03.040Z,87.96
2016-05-19T02:54:03.078Z,87.96
2016-05-19T02:55:03.118Z,87.96
2016-05-19T02:56:03.156Z,87.96
2016-05-19T02:57:03.192Z,87.87
2016-05-19T02:58:03.243Z,87.87
2016-05-19T02:59:03.279Z,87.49
2016-05-19T03:00:03.315Z,87.49
2016-05-19T03:01:03.351Z,87.96
2016-05-19T03:02:03.385Z,88.06
2016-05-19T03:03:03.419Z,87.68
2016-05-19T03:04:03.470Z,87.77
2016-05-19T03:05:03.504Z,87.77
2016-05-19T03:06:03.539Z,88.06
2016-05-19T03:07:03.574Z,87.87
2016-05-19T03:08:03.873Z,87.49
2016-05-19T03:09:03.658Z,87.87
2016-05-19T03:10:03.691Z,87.68
2016-05-19T03:11:03.725Z,87.68
2016-05-19T03:12:03.760Z,87.87
2016-05-19T03:13:03.794Z,87.87
2016-05-19T03:14:03.844Z,87.96
2016-05-19T03:15:03.878Z,87.96
2016-05-19T03:16:03.911Z,87.87
2016-05-19T03:17:03.945Z,87.96
2016-05-19T03:18:03.995Z,88.16
2016-05-19T03:19:04.029Z,87.87
2016-05-19T03:20:04.063Z,87.87
2016-05-19T03:21:04.097Z,87.77
2016-05-19T03:22:04.130Z,87.77
2016-05-19T03:23:04.180Z,87.87
2016-05-19T03:24:04.213Z,87.68
2016-05-19T03:25:04.248Z,87.77
2016-05-19T03:26:04.282Z,87.87
2016-05-19T03:27:04.315Z,88.06
2016-05-19T03:28:04.365Z,87.96
2016-05-19T03:29:04.399Z,87.87
2016-05-19T03:30:04.434Z,87.96
2016-05-19T03:31:04.467Z,88.16
2016-05-19T03:32:04.501Z,88.16
2016-05-19T03:33:04.567Z,87.96
2016-05-19T03:34:04.585Z,87.96
2016-05-19T03:35:04.619Z,87.87
2016-05-19T03:36:04.653Z,88.35
2016-05-19T03:37:04.687Z,87.87
2016-05-19T03:38:05.142Z,88.45
2016-05-19T03:39:04.769Z,88.06
2016-05-19T03:40:04.804Z,87.68
2016-05-19T03:41:04.838Z,88.45
2016-05-19T03:42:04.887Z,88.45
2016-05-19T03:43:04.921Z,88.35
2016-05-19T03:44:04.955Z,88.35
2016-05-19T03:45:04.989Z,88.06
2016-05-19T03:46:05.022Z,88.45
2016-05-19T03:47:05.057Z,87.96
2016-05-19T03:48:05.091Z,87.87
2016-05-19T03:49:05.141Z,88.06
2016-05-19T03:50:05.175Z,87.87
2016-05-19T03:51:05.208Z,87.87
2016-05-19T03:52:05.274Z,87.96
2016-05-19T03:53:05.292Z,87.96
2016-05-19T03:54:05.327Z,88.16
2016-05-19T03:55:05.360Z,87.96
2016-05-19T03:56:05.394Z,87.87
2016-05-19T03:57:05.427Z,87.96
2016-05-19T03:58:05.462Z,87.87
2016-05-19T03:59:05.512Z,87.96
2016-05-19T04:00:05.545Z,88.06
2016-05-19T04:01:05.579Z,88.16
2016-05-19T04:02:05.612Z,88.16
2016-05-19T04:03:05.662Z,87.96
2016-05-19T04:04:05.696Z,88.06
2016-05-19T04:05:05.731Z,87.87
2016-05-19T04:06:05.764Z,88.45
2016-05-19T04:07:05.798Z,88.25
2016-05-19T04:08:05.832Z,87.96
2016-05-19T04:09:05.882Z,88.16
2016-05-19T04:10:05.917Z,87.87
2016-05-19T04:11:05.950Z,88.06
2016-05-19T04:12:05.984Z,87.96
2016-05-19T04:13:06.034Z,88.16
2016-05-19T04:14:06.067Z,88.25
2016-05-19T04:15:06.100Z,88.25
2016-05-19T04:16:06.135Z,88.45
2016-05-19T04:17:06.169Z,87.96
2016-05-19T04:18:06.219Z,88.16
2016-05-19T04:19:06.252Z,87.87
2016-05-19T04:20:06.286Z,88.06
2016-05-19T04:21:06.320Z,87.77
2016-05-19T04:22:06.354Z,88.06
2016-05-19T04:23:06.388Z,87.96
2016-05-19T04:24:06.438Z,87.96
2016-05-19T04:25:06.472Z,87.87
2016-05-19T04:26:06.505Z,88.35
2016-05-19T04:27:06.540Z,88.25
2016-05-19T04:28:06.574Z,87.96
2016-05-19T04:29:06.624Z,87.96
2016-05-19T04:30:06.657Z,87.77
2016-05-19T04:31:06.691Z,87.77
2016-05-19T04:32:06.726Z,88.16
2016-05-19T04:33:06.774Z,87.87
2016-05-19T04:34:06.809Z,87.96
2016-05-19T04:35:06.842Z,88.06
2016-05-19T04:36:06.876Z,87.96
2016-05-19T04:37:06.910Z,87.87
2016-05-19T04:38:06.959Z,87.77
2016-05-19T04:39:06.995Z,88.16
2016-05-19T04:40:07.028Z,88.54
2016-05-19T04:41:07.061Z,88.45
2016-05-19T04:42:07.096Z,88.16
2016-05-19T04:43:07.145Z,88.16
2016-05-19T04:44:07.179Z,88.25
2016-05-19T04:45:07.213Z,88.16
2016-05-19T04:46:07.247Z,87.87
2016-05-19T04:47:07.280Z,87.77
2016-05-19T04:48:07.331Z,87.77
2016-05-19T04:49:07.364Z,87.68
2016-05-19T04:50:07.399Z,87.87
2016-05-19T04:51:07.433Z,87.87
2016-05-19T04:52:07.466Z,87.96
2016-05-19T04:53:07.516Z,87.49
2016-05-19T04:54:07.549Z,87.29
2016-05-19T04:55:07.584Z,87.29
2016-05-19T04:56:07.618Z,87.87
2016-05-19T04:57:07.651Z,88.06
2016-05-19T04:58:07.686Z,87.87
2016-05-19T04:59:07.735Z,87.49
2016-05-19T05:00:07.769Z,87.39
2016-05-19T05:01:07.804Z,87.58
2016-05-19T05:02:07.852Z,87.68
2016-05-19T05:03:07.887Z,87.58
2016-05-19T05:04:07.920Z,87.87
2016-05-19T05:05:07.954Z,87.49
2016-05-19T05:06:07.988Z,87.49
2016-05-19T05:07:08.023Z,87.39
2016-05-19T05:08:08.306Z,87.39
2016-05-19T05:09:08.106Z,87.39
2016-05-19T05:10:08.140Z,86.91
2016-05-19T05:11:08.173Z,87.39
2016-05-19T05:12:08.208Z,87.58
2016-05-19T05:13:08.257Z,87.19
2016-05-19T05:14:08.292Z,87.01
2016-05-19T05:15:08.325Z,87.1
2016-05-19T05:16:08.359Z,87.1
2016-05-19T05:17:08.409Z,87.19
2016-05-19T05:18:08.442Z,87.29
2016-05-19T05:19:08.477Z,87.34
2016-05-19T05:20:08.511Z,87.15
2016-05-19T05:21:08.544Z,87.05
2016-05-19T05:22:08.594Z,86.62
2016-05-19T05:23:08.643Z,87.24
2016-05-19T05:24:08.802Z,87.24
2016-05-19T05:25:08.697Z,87.39
2016-05-19T05:26:08.730Z,86.91
2016-05-19T05:27:08.779Z,86.57
2016-05-19T05:28:08.813Z,86.76
2016-05-19T05:29:08.847Z,86.76
2016-05-19T05:30:08.882Z,86.66
2016-05-19T05:31:08.915Z,86.38
2016-05-19T05:32:08.965Z,86.47
2016-05-19T05:33:08.999Z,86.47
2016-05-19T05:34:09.032Z,86.57
2016-05-19T05:35:09.066Z,86.38
2016-05-19T05:36:09.116Z,86.38
2016-05-19T05:37:09.150Z,86.76
2016-05-19T05:38:09.278Z,86.57
2016-05-19T05:39:09.234Z,86.57
2016-05-19T05:40:09.268Z,86.85
2016-05-19T05:41:09.301Z,86.57
2016-05-19T05:42:09.335Z,87.05
2016-05-19T05:43:09.370Z,87.05
2016-05-19T05:44:09.404Z,87.15
2016-05-19T05:45:09.437Z,87.05
2016-05-19T05:46:09.487Z,86.57
2016-05-19T05:47:09.520Z,86.85
2016-05-19T05:48:09.555Z,87.15
2016-05-19T05:49:09.588Z,87.05
2016-05-19T05:50:09.639Z,86.47
2016-05-19T05:51:09.672Z,86.47
2016-05-19T05:52:09.706Z,86.47
2016-05-19T05:53:09.928Z,85.71
2016-05-19T05:54:09.789Z,85.8
2016-05-19T05:55:09.824Z,86.09
2016-05-19T05:56:09.858Z,86.18
2016-05-19T05:57:09.891Z,85.99
2016-05-19T05:58:09.941Z,86.66
2016-05-19T05:59:09.974Z,86.38
2016-05-19T06:00:10.008Z,86.57
2016-05-19T06:01:10.043Z,86.57
2016-05-19T06:02:10.077Z,86.85
2016-05-19T06:03:10.111Z,86.47
2016-05-19T06:04:10.160Z,86.57
2016-05-19T06:05:10.194Z,86.76
2016-05-19T06:06:10.229Z,86.28
2016-05-19T06:07:10.262Z,86.09
2016-05-19T06:08:10.312Z,85.8
2016-05-19T06:09:10.345Z,85.99
2016-05-19T06:10:10.379Z,86.09
2016-05-19T06:11:10.413Z,86.18
2016-05-19T06:12:10.462Z,86.28
2016-05-19T06:13:10.497Z,86.18
2016-05-19T06:14:10.531Z,86.28
2016-05-19T06:15:10.565Z,86.18
2016-05-19T06:16:10.599Z,86.18
2016-05-19T06:17:10.648Z,86.09
2016-05-19T06:18:10.682Z,86.09
2016-05-19T06:19:10.716Z,86.18
2016-05-19T06:20:10.750Z,86.09
2016-05-19T06:21:10.799Z,85.71
2016-05-19T06:22:10.834Z,85.71
2016-05-19T06:23:10.867Z,85.8
2016-05-19T06:24:10.902Z,85.71
2016-05-19T06:25:10.951Z,85.71
2016-05-19T06:26:10.986Z,85.8
2016-05-19T06:27:11.019Z,85.71
2016-05-19T06:28:11.052Z,85.71
2016-05-19T06:29:11.086Z,85.61
2016-05-19T06:30:11.136Z,85.61
2016-05-19T06:31:11.170Z,86.13
2016-05-19T06:32:11.205Z,86.18
2016-05-19T06:33:11.238Z,86.18
2016-05-19T06:34:11.288Z,85.8
2016-05-19T06:35:11.322Z,86.18
2016-05-19T06:36:11.355Z,86.28
2016-05-19T06:37:11.390Z,86.22
2016-05-19T06:38:11.439Z,85.84
2016-05-19T06:39:11.473Z,85.94
2016-05-19T06:40:11.507Z,85.75
2016-05-19T06:41:11.541Z,85.75
2016-05-19T06:42:11.575Z,85.89
2016-05-19T06:43:11.624Z,86.22
2016-05-19T06:44:11.659Z,86.18
2016-05-19T06:45:11.693Z,85.94
2016-05-19T06:46:11.726Z,86.04
2016-05-19T06:47:11.776Z,86.32
2016-05-19T06:48:11.810Z,86.9
2016-05-19T06:49:11.844Z,86.8
2016-05-19T06:50:11.877Z,86.42
2016-05-19T06:51:11.927Z,86.61
2016-05-19T06:52:11.961Z,86.42
2016-05-19T06:53:11.995Z,86.42
2016-05-19T06:54:12.029Z,86.61
2016-05-19T06:55:12.063Z,86.52
2016-05-19T06:56:12.113Z,86.22
2016-05-19T06:57:12.147Z,86.13
2016-05-19T06:58:12.181Z,86.22
2016-05-19T06:59:12.213Z,86.42
2016-05-19T07:00:12.264Z,86.42
2016-05-19T07:01:12.297Z,86.61
2016-05-19T07:02:12.347Z,86.8
2016-05-19T07:03:12.365Z,86.42
2016-05-19T07:04:12.415Z,86.52
2016-05-19T07:05:12.449Z,86.52
2016-05-19T07:06:12.483Z,86.71
2016-05-19T07:07:12.517Z,86.61
2016-05-19T07:08:12.566Z,86.52
2016-05-19T07:09:12.601Z,86.52
2016-05-19T07:10:12.634Z,86.61
2016-05-19T07:11:12.668Z,86.42
2016-05-19T07:12:12.718Z,86.52
2016-05-19T07:13:12.751Z,86.42
2016-05-19T07:14:12.786Z,86.61
2016-05-19T07:15:12.820Z,86.04
2016-05-19T07:16:12.869Z,86.22
2016-05-19T07:17:12.903Z,86.32
2016-05-19T07:18:12.937Z,86.04
2016-05-19T07:19:12.971Z,86.22
2016-05-19T07:20:13.020Z,85.84
2016-05-19T07:21:13.055Z,85.55
2016-05-19T07:22:13.089Z,85.94
2016-05-19T07:23:13.122Z,85.27
2016-05-19T07:24:13.172Z,85.84
2016-05-19T07:25:13.206Z,85.84
2016-05-19T07:26:13.256Z,85.94
2016-05-19T07:27:13.274Z,85.75
2016-05-19T07:28:13.324Z,85.65
2016-05-19T07:29:13.358Z,85.27
2016-05-19T07:30:13.408Z,85.55
2016-05-19T07:31:13.425Z,85.46
2016-05-19T07:32:13.475Z,85.27
2016-05-19T07:33:13.508Z,85.36
2016-05-19T07:34:13.543Z,85.27
2016-05-19T07:35:13.577Z,85.17
2016-05-19T07:36:13.627Z,85.07
2016-05-19T07:37:13.660Z,85.27
2016-05-19T07:38:13.694Z,85.17
2016-05-19T07:39:13.728Z,85.27
2016-05-19T07:40:13.777Z,85.27
2016-05-19T07:41:13.812Z,85.46
2016-05-19T07:42:13.845Z,85.17
2016-05-19T07:43:13.879Z,85.46
2016-05-19T07:44:13.929Z,84.98
2016-05-19T07:45:13.978Z,85.07
2016-05-19T07:46:13.998Z,85.27
2016-05-19T07:47:14.031Z,85.07
2016-05-19T07:48:14.064Z,85.55
2016-05-19T07:49:14.115Z,85.94
2016-05-19T07:50:14.149Z,85.75
2016-05-19T07:51:14.182Z,85.94
2016-05-19T07:52:14.232Z,85.75
2016-05-19T07:53:14.266Z,85.75
2016-05-19T07:54:14.300Z,86.22
2016-05-19T07:55:14.333Z,86.04
2016-05-19T07:56:14.383Z,86.13
2016-05-19T07:57:14.417Z,85.84
2016-05-19T07:58:14.451Z,85.55
2016-05-19T07:59:14.485Z,85.75
2016-05-19T08:00:14.519Z,85.65
2016-05-19T08:01:14.569Z,85.17
2016-05-19T08:02:14.602Z,85.36
2016-05-19T08:03:14.636Z,84.69
2016-05-19T08:04:14.670Z,84.69
2016-05-19T08:05:14.719Z,84.88
2016-05-19T08:06:14.754Z,84.78
2016-05-19T08:07:14.788Z,85.27
2016-05-19T08:08:14.822Z,84.98
2016-05-19T08:09:14.872Z,84.88
2016-05-19T08:10:14.905Z,84.69
2016-05-19T08:11:14.940Z,84.69
2016-05-19T08:12:14.988Z,84.5
2016-05-19T08:13:15.023Z,84.88
2016-05-19T08:14:15.057Z,84.3
2016-05-19T08:15:15.090Z,84.11
2016-05-19T08:16:15.140Z,84.88
2016-05-19T08:17:15.174Z,84.78
2016-05-19T08:18:15.209Z,84.88
2016-05-19T08:19:15.242Z,85.27
2016-05-19T08:20:15.276Z,85.07
2016-05-19T08:21:15.325Z,85.31
2016-05-19T08:22:15.469Z,85.21
2016-05-19T08:23:15.487Z,85.31
2016-05-19T08:24:15.427Z,84.92
2016-05-19T08:25:15.570Z,85.02
2016-05-19T08:26:15.510Z,85.02
2016-05-19T08:27:15.575Z,85.31
2016-05-19T08:28:15.578Z,85.31
2016-05-19T08:29:15.628Z,85.31
2016-05-19T08:30:15.709Z,85.31
2016-05-19T08:31:15.696Z,85.02
2016-05-19T08:32:15.730Z,85.11
2016-05-19T08:33:15.780Z,84.92
2016-05-19T08:34:15.813Z,85.11
2016-05-19T08:35:15.848Z,85.11
2016-05-19T08:36:15.882Z,85.11
2016-05-19T08:37:15.931Z,84.73
2016-05-19T08:38:16.121Z,84.83
2016-05-19T08:39:15.999Z,85.02
2016-05-19T08:40:16.095Z,85.21
2016-05-19T08:41:16.082Z,85.31
2016-05-19T08:42:16.116Z,85.21
2016-05-19T08:43:16.151Z,85.31
2016-05-19T08:44:16.185Z,85.31
2016-05-19T08:45:16.234Z,85.4
2016-05-19T08:46:16.268Z,85.31
2016-05-19T08:47:16.301Z,85.31
2016-05-19T08:48:16.351Z,85.21
2016-05-19T08:49:16.384Z,85.4
2016-05-19T08:50:16.419Z,85.02
2016-05-19T08:51:16.453Z,85.02
2016-05-19T08:52:16.503Z,85.06
2016-05-19T08:53:16.536Z,84.92
2016-05-19T08:54:16.570Z,85.11
2016-05-19T08:55:16.604Z,85.02
2016-05-19T08:56:16.654Z,85.06
2016-05-19T08:57:16.688Z,85.35
2016-05-19T08:58:16.722Z,85.35
2016-05-19T08:59:16.771Z,85.44
2016-05-19T09:00:16.805Z,85.11
2016-05-19T09:01:16.839Z,85.31
2016-05-19T09:02:16.873Z,85.11
2016-05-19T09:03:16.923Z,84.87
2016-05-19T09:04:16.957Z,84.87
2016-05-19T09:05:16.991Z,84.92
2016-05-19T09:06:17.025Z,85.31
2016-05-19T09:07:17.074Z,84.73
2016-05-19T09:08:17.107Z,84.77
2016-05-19T09:09:17.141Z,84.87
2016-05-19T09:10:17.207Z,84.77
2016-05-19T09:11:17.226Z,84.87
2016-05-19T09:12:17.259Z,84.77
2016-05-19T09:13:17.341Z,84.77
2016-05-19T09:14:17.390Z,84.58
2016-05-19T09:15:17.376Z,84.58
2016-05-19T09:16:17.411Z,84.77
2016-05-19T09:17:17.445Z,84.77
2016-05-19T09:18:17.495Z,84.58
2016-05-19T09:19:17.528Z,84.58
2016-05-19T09:20:17.563Z,84.67
2016-05-19T09:21:17.596Z,85.35
2016-05-19T09:22:17.645Z,84.87
2016-05-19T09:23:17.679Z,84.97
2016-05-19T09:24:17.714Z,84.67
2016-05-19T09:25:17.748Z,84.87
2016-05-19T09:26:17.797Z,84.87
2016-05-19T09:27:17.831Z,85.25
2016-05-19T09:28:17.864Z,85.35
2016-05-19T09:29:17.914Z,84.77
2016-05-19T09:30:17.948Z,84.67
2016-05-19T09:31:17.983Z,84.67
2016-05-19T09:32:18.017Z,84.77
2016-05-19T09:33:18.050Z,84.67
2016-05-19T09:34:18.100Z,84.87
2016-05-19T09:35:18.133Z,84.77
2016-05-19T09:36:18.168Z,84.87
2016-05-19T09:37:18.216Z,84.87
2016-05-19T09:38:18.252Z,84.87
2016-05-19T09:39:18.286Z,84.67
2016-05-19T09:40:18.335Z,84.58
2016-05-19T09:41:18.369Z,84.58
2016-05-19T09:42:18.402Z,84.58
2016-05-19T09:43:18.437Z,84.67
2016-05-19T09:44:18.486Z,84.67
2016-05-19T09:45:18.520Z,84.67
2016-05-19T09:46:18.554Z,84.67
2016-05-19T09:47:18.604Z,84.58
2016-05-19T09:48:18.638Z,85.35
2016-05-19T09:49:18.687Z,84.67
2016-05-19T09:50:18.706Z,84.58
2016-05-19T09:51:18.755Z,84.87
2016-05-19T09:52:18.789Z,84.77
2016-05-19T09:53:19.120Z,84.77
2016-05-19T09:54:18.857Z,84.77
2016-05-19T09:55:18.906Z,84.77
2016-05-19T09:56:18.940Z,84.67
2016-05-19T09:57:18.975Z,84.77
2016-05-19T09:58:19.008Z,84.77
2016-05-19T09:59:19.058Z,84.87
2016-05-19T10:00:19.092Z,84.87
2016-05-19T10:01:19.125Z,84.58
2016-05-19T10:02:19.175Z,84.53
2016-05-19T10:03:19.209Z,84.58
2016-05-19T10:04:19.244Z,84.81
2016-05-19T10:05:19.277Z,84.72
2016-05-19T10:06:19.327Z,85
2016-05-19T10:07:19.361Z,84.81
2016-05-19T10:08:19.426Z,84.43
2016-05-19T10:09:19.444Z,84.43
2016-05-19T10:10:19.478Z,84.23
2016-05-19T10:11:19.543Z,84.43
2016-05-19T10:12:19.546Z,84.43
2016-05-19T10:13:19.596Z,84.43
2016-05-19T10:14:19.630Z,84.43
2016-05-19T10:15:19.663Z,84.23
2016-05-19T10:16:19.713Z,84.33
2016-05-19T10:17:19.747Z,84.33
2016-05-19T10:18:19.781Z,84.43
2016-05-19T10:19:19.815Z,84.14
2016-05-19T10:20:19.865Z,84.33
2016-05-19T10:21:19.899Z,84.43
2016-05-19T10:22:19.932Z,84.23
2016-05-19T10:23:19.982Z,84.43
2016-05-19T10:24:20.015Z,84.43
2016-05-19T10:25:20.253Z,84.23
2016-05-19T10:26:20.099Z,84.23
2016-05-19T10:27:20.134Z,84.14
2016-05-19T10:28:20.167Z,84.33
2016-05-19T10:29:20.201Z,84.23
2016-05-19T10:30:20.251Z,84.43
2016-05-19T10:31:20.284Z,84.53
2016-05-19T10:32:20.319Z,85
2016-05-19T10:33:20.368Z,85
2016-05-19T10:34:20.403Z,84.81
2016-05-19T10:35:20.436Z,84.91
2016-05-19T10:36:20.470Z,84.91
2016-05-19T10:37:20.519Z,84.91
2016-05-19T10:38:20.553Z,84.81
2016-05-19T10:39:20.588Z,84.53
2016-05-19T10:40:20.622Z,84.47
2016-05-19T10:41:20.671Z,84.33
2016-05-19T10:42:20.705Z,84.33
2016-05-19T10:43:20.755Z,84.33
2016-05-19T10:44:20.788Z,84.33
2016-05-19T10:45:20.822Z,84.43
2016-05-19T10:46:20.857Z,84.43
2016-05-19T10:47:20.906Z,84.56
2016-05-19T10:48:20.940Z,84.43
2016-05-19T10:49:20.974Z,84.62
2016-05-19T10:50:21.023Z,84.43
2016-05-19T10:51:21.057Z,84.62
2016-05-19T10:52:21.091Z,84.56
2016-05-19T10:53:21.126Z,84.66
2016-05-19T10:54:21.174Z,84.43
2016-05-19T10:55:21.209Z,84.86
2016-05-19T10:56:21.243Z,84.86
2016-05-19T10:57:21.292Z,84.76
2016-05-19T10:58:21.325Z,84.66
2016-05-19T10:59:21.360Z,84.18
2016-05-19T11:00:21.395Z,84.47
2016-05-19T11:01:21.443Z,84.66
2016-05-19T11:02:21.478Z,84.56
2016-05-19T11:03:21.511Z,84.28
2016-05-19T11:04:21.561Z,84.38
2016-05-19T11:05:21.594Z,84.18
2016-05-19T11:06:21.644Z,84.38
2016-05-19T11:07:21.678Z,84.18
2016-05-19T11:08:21.712Z,84.18
2016-05-19T11:09:21.747Z,84.18
2016-05-19T11:10:21.796Z,84.56
2016-05-19T11:11:21.829Z,84.09
2016-05-19T11:12:21.863Z,84.09
2016-05-19T11:13:21.898Z,84.47
2016-05-19T11:14:21.947Z,84.38
2016-05-19T11:15:21.981Z,84.18
2016-05-19T11:16:22.030Z,83.99
2016-05-19T11:17:22.065Z,83.61
2016-05-19T11:18:22.098Z,83.61
2016-05-19T11:19:22.132Z,83.61
2016-05-19T11:20:22.182Z,83.61
2016-05-19T11:21:22.216Z,83.61
2016-05-19T11:22:22.249Z,83.51
2016-05-19T11:23:22.299Z,83.8
2016-05-19T11:24:22.334Z,83.8
2016-05-19T11:25:22.383Z,83.22
2016-05-19T11:26:22.417Z,83.03
2016-05-19T11:27:22.451Z,83.22
2016-05-19T11:28:22.485Z,83.41
2016-05-19T11:29:22.519Z,83.41
2016-05-19T11:30:22.568Z,83.41
2016-05-19T11:31:22.603Z,83.12
2016-05-19T11:32:22.636Z,83.16
2016-05-19T11:33:22.686Z,83.12
2016-05-19T11:34:22.719Z,83.26
2016-05-19T11:35:22.769Z,82.93
2016-05-19T11:36:22.803Z,82.97
2016-05-19T11:37:22.837Z,82.97
2016-05-19T11:38:23.683Z,82.97
2016-05-19T11:39:22.920Z,82.97
2016-05-19T11:40:22.954Z,83.26
2016-05-19T11:41:22.988Z,82.68
2016-05-19T11:42:23.023Z,82.68
2016-05-19T11:43:24.775Z,82.59
2016-05-19T11:44:23.121Z,82.78
2016-05-19T11:45:23.155Z,82.39
2016-05-19T11:46:23.189Z,82.49
2016-05-19T11:47:23.262Z,82.2
2016-05-19T11:48:24.538Z,82.2
2016-05-19T11:49:23.425Z,82.39
2016-05-19T11:50:23.516Z,82.2
2016-05-19T11:51:23.589Z,82.29
2016-05-19T11:52:23.640Z,82.59
2016-05-19T11:53:24.876Z,82.68
2016-05-19T11:54:23.752Z,82.29
2016-05-19T11:55:23.801Z,82.01
2016-05-19T11:56:23.864Z,82.01
2016-05-19T11:57:23.889Z,81.81
2016-05-19T11:58:23.944Z,81.72
2016-05-19T11:59:23.983Z,82.2
2016-05-19T12:00:24.039Z,81.91
2016-05-19T12:01:24.078Z,81.91
2016-05-19T12:02:24.115Z,81.81
2016-05-19T12:03:24.165Z,81.95
2016-05-19T12:04:24.201Z,82.01
2016-05-19T12:05:24.237Z,81.91
2016-05-19T12:06:24.289Z,81.91
2016-05-19T12:07:24.323Z,81.95
2016-05-19T12:08:24.358Z,81.91
2016-05-19T12:09:24.408Z,82.05
2016-05-19T12:10:24.442Z,81.91
2016-05-19T12:11:24.478Z,81.81
2016-05-19T12:12:24.528Z,81.85
2016-05-19T12:13:25.124Z,81.85
2016-05-19T12:14:24.690Z,81.95
2016-05-19T12:15:26.333Z,81.95
2016-05-19T12:16:24.681Z,82.05
2016-05-19T12:17:24.714Z,82.14
2016-05-19T12:18:27.155Z,82.14
2016-05-19T12:19:24.799Z,81.95
2016-05-19T12:20:24.832Z,81.57
2016-05-19T12:21:24.881Z,81.76
2016-05-19T12:22:24.915Z,81.66
2016-05-19T12:23:25.512Z,81.95
2016-05-19T12:24:24.999Z,81.85
2016-05-19T12:25:25.032Z,81.47
2016-05-19T12:26:25.067Z,81.09
2016-05-19T12:27:25.132Z,81.27
2016-05-19T12:28:27.416Z,80.89
2016-05-19T12:29:25.184Z,80.6
2016-05-19T12:30:25.234Z,80.12
2016-05-19T12:31:25.268Z,79.25
2016-05-19T12:32:25.318Z,78.29
2016-05-19T12:33:25.351Z,77.9
2016-05-19T12:34:25.385Z,76.75
2016-05-19T12:35:25.419Z,75.78
2016-05-19T12:36:25.469Z,73.95
2016-05-19T12:37:25.503Z,72.89
2016-05-19T12:38:25.553Z,71.92
2016-05-19T12:39:26.117Z,59.97
2016-05-19T12:40:25.620Z,60.45
2016-05-19T12:41:25.654Z,63.34
2016-05-19T12:42:25.704Z,64.98
2016-05-19T12:43:27.503Z,65.66
2016-05-19T12:44:25.772Z,65.27
2016-05-19T12:45:25.821Z,64.89
2016-05-19T12:46:25.855Z,63.89
2016-05-19T12:47:25.905Z,63.89
2016-05-19T12:48:25.938Z,64.66
2016-05-19T12:49:25.972Z,64.47
2016-05-19T12:50:26.022Z,64.37
2016-05-19T12:51:26.056Z,64.56
2016-05-19T12:52:26.090Z,65.33
2016-05-19T12:53:26.124Z,65.33
2016-05-19T12:54:26.174Z,65.63